Time;durP1;ratioP1;P1;durP2;ratioP2;P2;SDS_P1;SDS_P2;PMS_P1;PMS_P2;Temp;Humidity;BMP_temperature;BMP_pressure;BME280_temperature;BME280_humidity;BME280_pressure;Samples;Min_cycle;Max_cycle;Signal;HPM_P1;HPM_P2
2021/12/28 00:01:07;;;;;;;9.00;3.38;;;;;;;1.59;100.00;99629.78;6248010;28;20050;-75
2021/12/28 00:04:08;;;;;;;5.25;3.60;;;;;;;1.61;100.00;99628.84;6248210;28;20042;-75
2021/12/28 00:07:10;;;;;;;5.45;3.30;;;;;;;1.64;100.00;99627.91;6248191;28;20045;-76
2021/12/28 00:10:14;;;;;;;7.70;3.65;;;;;;;1.67;100.00;99628.63;6247499;28;20049;-75
2021/12/28 00:13:16;;;;;;;6.60;3.60;;;;;;;1.71;100.00;99631.97;6247983;28;20060;-76
2021/12/28 00:16:33;;;;;;;4.00;2.38;;;;;;;1.70;100.00;99625.94;6247386;28;20421;-75
2021/12/28 00:19:34;;;;;;;5.57;2.90;;;;;;;1.72;100.00;99618.94;6244730;28;20050;-75
2021/12/28 00:22:36;;;;;;;6.47;3.22;;;;;;;1.75;100.00;99613.66;6247370;28;20493;-76
2021/12/28 00:25:38;;;;;;;3.83;2.67;;;;;;;1.76;100.00;99617.09;6245853;28;20419;-76
2021/12/28 00:28:40;;;;;;;6.88;2.85;;;;;;;1.77;100.00;99609.28;6243059;28;20416;-76
2021/12/28 00:31:41;;;;;;;4.55;3.38;;;;;;;1.76;100.00;99611.91;6245781;28;20056;-76
2021/12/28 00:34:42;;;;;;;5.32;2.50;;;;;;;1.72;100.00;99606.00;6247297;28;20057;-75
2021/12/28 00:37:44;;;;;;;4.80;3.42;;;;;;;1.75;100.00;99602.47;6246975;28;20045;-75
2021/12/28 00:40:47;;;;;;;7.55;3.08;;;;;;;1.72;100.00;99592.22;6247060;28;20520;-75
2021/12/28 00:43:48;;;;;;;5.10;3.22;;;;;;;1.72;100.00;99590.47;6247035;28;20485;-75
2021/12/28 00:46:50;;;;;;;6.43;2.88;;;;;;;1.71;100.00;99577.56;6247111;28;20050;-76
2021/12/28 00:49:51;;;;;;;5.47;2.88;;;;;;;1.70;100.00;99576.72;6245685;28;20053;-75
2021/12/28 00:52:52;;;;;;;5.38;3.05;;;;;;;1.74;100.00;99573.13;6247081;28;20049;-75
2021/12/28 00:55:55;;;;;;;5.03;3.22;;;;;;;1.77;100.00;99554.03;6246947;28;20048;-75
2021/12/28 00:58:57;;;;;;;7.90;3.38;;;;;;;1.78;100.00;99556.59;6246779;28;20053;-75
2021/12/28 01:01:58;;;;;;;11.77;3.80;;;;;;;1.78;100.00;99553.16;6246565;28;20705;-75
2021/12/28 01:04:59;;;;;;;6.10;3.22;;;;;;;1.81;100.00;99557.38;6246666;28;20052;-75
2021/12/28 01:08:01;;;;;;;7.80;3.28;;;;;;;1.81;100.00;99565.13;6246961;28;20045;-75
2021/12/28 01:11:06;;;;;;;5.35;2.70;;;;;;;1.81;100.00;99555.63;6246373;28;20049;-76
2021/12/28 01:14:07;;;;;;;6.32;3.38;;;;;;;1.79;100.00;99560.03;6241265;28;20078;-75
2021/12/28 01:17:09;;;;;;;7.32;3.97;;;;;;;1.78;100.00;99555.75;6246509;28;20054;-75
2021/12/28 01:20:13;;;;;;;8.02;3.78;;;;;;;1.74;100.00;99559.34;6244863;28;20045;-76
2021/12/28 01:23:14;;;;;;;6.28;3.78;;;;;;;1.73;100.00;99553.31;6246674;28;20459;-76
2021/12/28 01:26:17;;;;;;;6.07;3.88;;;;;;;1.69;100.00;99550.91;6246788;28;20052;-75
2021/12/28 01:29:18;;;;;;;7.13;3.85;;;;;;;1.65;100.00;99555.34;6246531;28;20049;-75
2021/12/28 01:32:20;;;;;;;7.07;3.45;;;;;;;1.60;100.00;99549.50;6246421;28;20053;-75
2021/12/28 01:35:22;;;;;;;5.05;3.47;;;;;;;1.59;100.00;99546.94;6246408;28;20133;-76
2021/12/28 01:38:23;;;;;;;5.22;2.95;;;;;;;1.54;100.00;99549.69;6246220;28;20057;-76
2021/12/28 01:41:26;;;;;;;5.20;3.63;;;;;;;1.52;100.00;99551.50;6246285;28;20054;-75
2021/12/28 01:44:29;;;;;;;5.22;3.25;;;;;;;1.49;100.00;99554.19;6246245;28;20409;-75
2021/12/28 01:47:30;;;;;;;8.50;3.88;;;;;;;1.45;100.00;99556.06;6246254;28;20519;-75
2021/12/28 01:50:31;;;;;;;6.60;3.13;;;;;;;1.42;100.00;99553.56;6244252;28;20587;-75
2021/12/28 01:53:34;;;;;;;12.02;4.55;;;;;;;1.44;100.00;99551.75;6246221;28;20050;-75
2021/12/28 01:56:40;;;;;;;6.68;3.17;;;;;;;1.43;100.00;99549.25;6247935;28;20053;-75
2021/12/28 01:59:41;;;;;;;7.95;4.43;;;;;;;1.46;100.00;99549.13;6251021;28;20049;-75
2021/12/28 02:02:43;;;;;;;7.75;2.60;;;;;;;1.47;100.00;99543.91;6250743;28;20488;-75
2021/12/28 02:05:44;;;;;;;7.22;3.03;;;;;;;1.50;100.00;99543.78;6250900;28;20041;-75
2021/12/28 02:08:46;;;;;;;7.25;4.32;;;;;;;1.53;100.00;99554.03;6250650;28;20049;-75
2021/12/28 02:11:49;;;;;;;6.75;3.30;;;;;;;1.56;100.00;99552.25;6250359;28;20078;-75
2021/12/28 02:14:50;;;;;;;3.45;2.10;;;;;;;1.57;100.00;99548.75;6250616;28;20049;-75
2021/12/28 02:17:52;;;;;;;6.60;3.92;;;;;;;1.60;100.00;99540.88;6247445;28;20053;-75
2021/12/28 02:20:56;;;;;;;7.50;3.53;;;;;;;1.59;100.00;99547.81;6225867;28;20069;-75
2021/12/28 02:23:58;;;;;;;8.40;4.13;;;;;;;1.62;100.00;99545.09;6225764;28;20046;-75
2021/12/28 02:26:59;;;;;;;11.05;4.72;;;;;;;1.63;100.00;99540.75;6245600;28;20064;-75
2021/12/28 02:30:00;;;;;;;6.45;3.63;;;;;;;1.65;100.00;99544.16;6247072;28;20064;-75
2021/12/28 02:33:02;;;;;;;8.73;4.50;;;;;;;1.70;100.00;99537.88;6250235;28;20056;-75
2021/12/28 02:36:06;;;;;;;8.95;4.03;;;;;;;1.75;100.00;99525.63;6249784;28;20488;-75
2021/12/28 02:39:07;;;;;;;6.40;4.03;;;;;;;1.77;100.00;99525.53;6249849;28;20045;-75
2021/12/28 02:42:09;;;;;;;5.40;3.45;;;;;;;1.80;100.00;99517.66;6249720;28;20501;-75
2021/12/28 02:45:13;;;;;;;9.82;3.83;;;;;;;1.83;100.00;99522.75;6249742;28;20524;-75
2021/12/28 02:48:15;;;;;;;4.35;2.97;;;;;;;1.87;100.00;99531.25;6248113;28;20073;-75
2021/12/28 02:51:17;;;;;;;14.60;4.18;;;;;;;1.87;100.00;99523.47;6249311;28;20492;-75
2021/12/28 02:54:20;;;;;;;5.25;3.45;;;;;;;1.89;100.00;99516.50;6249841;28;20053;-75
2021/12/28 02:57:21;;;;;;;5.30;3.30;;;;;;;1.90;100.00;99510.41;6249496;28;20054;-75
2021/12/28 03:00:31;;;;;;;5.97;3.33;;;;;;;1.89;100.00;99511.31;6249468;28;20054;-76
2021/12/28 03:03:34;;;;;;;5.47;3.30;;;;;;;1.92;100.00;99508.59;6249331;28;20072;-75
2021/12/28 03:06:37;;;;;;;7.68;2.97;;;;;;;1.93;100.00;99498.19;6249137;28;20049;-76
2021/12/28 03:09:39;;;;;;;6.80;3.65;;;;;;;1.97;100.00;99496.31;6247851;28;20054;-76
2021/12/28 03:12:40;;;;;;;6.63;3.83;;;;;;;2.00;100.00;99488.44;6243249;28;20053;-75
2021/12/28 03:15:42;;;;;;;7.25;3.50;;;;;;;2.03;100.00;99485.72;6249160;28;20535;-75
2021/12/28 03:18:44;;;;;;;7.10;3.67;;;;;;;2.08;100.00;99490.72;6237322;28;20054;-75
2021/12/28 03:21:47;;;;;;;8.85;4.07;;;;;;;2.05;100.00;99483.09;6224502;28;20050;-75
2021/12/28 03:24:48;;;;;;;7.22;3.38;;;;;;;2.04;100.00;99474.44;6224328;28;20143;-75
2021/12/28 03:27:49;;;;;;;6.40;4.00;;;;;;;2.06;100.00;99471.81;6224152;28;20057;-76
2021/12/28 03:30:54;;;;;;;6.68;4.05;;;;;;;2.09;100.00;99466.47;6223951;28;20049;-75
2021/12/28 03:33:56;;;;;;;5.97;3.95;;;;;;;2.13;100.00;99462.88;6224494;28;20100;-75
2021/12/28 03:36:59;;;;;;;5.57;3.25;;;;;;;2.11;100.00;99459.50;6224237;28;20505;-74
2021/12/28 03:40:01;;;;;;;7.40;4.88;;;;;;;2.11;100.00;99455.16;6224061;28;20141;-74
2021/12/28 03:43:04;;;;;;;8.77;4.35;;;;;;;2.11;100.00;99447.41;6224231;28;20056;-73
2021/12/28 03:46:06;;;;;;;8.02;4.13;;;;;;;2.14;100.00;99443.84;6224126;28;20053;-74
2021/12/28 03:49:07;;;;;;;7.68;3.33;;;;;;;2.11;100.00;99444.81;6223881;28;20046;-74
2021/12/28 03:52:10;;;;;;;6.75;3.47;;;;;;;2.12;100.00;99443.06;6223908;28;20050;-74
2021/12/28 03:55:12;;;;;;;9.93;3.35;;;;;;;2.14;100.00;99441.25;6223766;28;20042;-74
2021/12/28 03:58:13;;;;;;;7.25;3.08;;;;;;;2.17;100.00;99425.56;6223977;28;20045;-73
2021/12/28 04:01:18;;;;;;;6.65;3.70;;;;;;;2.14;100.00;99425.72;6223455;28;20421;-74
2021/12/28 04:04:20;;;;;;;9.65;3.17;;;;;;;2.18;100.00;99433.31;6223509;28;20055;-73
2021/12/28 04:07:23;;;;;;;5.78;2.78;;;;;;;2.18;100.00;99429.84;6223544;28;20048;-73
2021/12/28 04:10:30;;;;;;;5.82;2.92;;;;;;;2.19;100.00;99431.56;6223138;28;20050;-74
2021/12/28 04:13:31;;;;;;;7.15;3.38;;;;;;;2.20;100.00;99430.63;6223614;28;20057;-74
2021/12/28 04:16:35;;;;;;;5.85;3.50;;;;;;;2.20;100.00;99436.66;6227908;28;20516;-74
2021/12/28 04:19:36;;;;;;;8.10;3.50;;;;;;;2.20;100.00;99426.28;6238316;28;20100;-74
2021/12/28 04:22:40;;;;;;;5.47;3.20;;;;;;;2.20;100.00;99428.88;6241757;28;20107;-74
2021/12/28 04:25:42;;;;;;;8.18;3.33;;;;;;;2.22;100.00;99429.66;6244744;28;20049;-74
2021/12/28 04:28:43;;;;;;;6.57;3.20;;;;;;;2.25;100.00;99428.69;6247401;28;20048;-74
2021/12/28 04:31:45;;;;;;;7.82;3.72;;;;;;;2.28;100.00;99415.63;6247336;28;20053;-74
2021/12/28 04:34:46;;;;;;;7.20;4.00;;;;;;;2.29;100.00;99419.91;6241961;28;20501;-73
2021/12/28 04:37:49;;;;;;;4.88;3.00;;;;;;;2.28;100.00;99416.47;6235265;28;20509;-74
2021/12/28 04:40:50;;;;;;;6.25;3.47;;;;;;;2.25;100.00;99418.34;6222773;28;20053;-74
2021/12/28 04:43:52;;;;;;;4.95;3.22;;;;;;;2.20;100.00;99421.13;6222768;28;20413;-74
2021/12/28 04:46:54;;;;;;;3.47;2.55;;;;;;;2.17;100.00;99422.97;6226379;28;20042;-74
2021/12/28 04:49:55;;;;;;;7.78;2.88;;;;;;;2.12;100.00;99415.38;6237582;28;20049;-73
2021/12/28 04:53:02;;;;;;;3.75;2.60;;;;;;;2.08;100.00;99419.00;6247233;28;20056;-73
2021/12/28 04:56:04;;;;;;;4.65;2.55;;;;;;;2.04;100.00;99420.03;6247016;28;20045;-74
2021/12/28 04:59:06;;;;;;;7.07;3.35;;;;;;;2.02;100.00;99420.09;6246994;28;20056;-74
2021/12/28 05:02:08;;;;;;;6.35;3.42;;;;;;;2.05;100.00;99420.91;6246869;28;20057;-74
2021/12/28 05:05:10;;;;;;;3.85;2.33;;;;;;;2.06;100.00;99422.56;6247192;28;20054;-73
2021/12/28 05:08:14;;;;;;;6.03;3.30;;;;;;;2.13;100.00;99414.47;6246855;28;20061;-73
2021/12/28 05:11:15;;;;;;;5.20;3.40;;;;;;;2.16;100.00;99409.19;6246774;28;20128;-72
2021/12/28 05:14:18;;;;;;;6.60;2.83;;;;;;;2.20;100.00;99399.53;6243615;28;20053;-74
2021/12/28 05:17:20;;;;;;;6.18;3.35;;;;;;;2.28;100.00;99403.50;6237059;28;20096;-74
2021/12/28 05:20:21;;;;;;;6.15;3.53;;;;;;;2.33;100.00;99407.66;6237962;28;20053;-74
2021/12/28 05:23:24;;;;;;;6.60;3.25;;;;;;;2.34;100.00;99402.41;6246862;28;20050;-74
2021/12/28 05:26:25;;;;;;;5.50;2.97;;;;;;;2.38;100.00;99400.53;6246684;28;20042;-74
2021/12/28 05:29:27;;;;;;;3.97;2.67;;;;;;;2.42;100.00;99396.91;6246572;28;20501;-74
2021/12/28 05:32:28;;;;;;;5.65;3.28;;;;;;;2.40;100.00;99398.72;6249704;28;20041;-74
2021/12/28 05:35:29;;;;;;;5.93;2.83;;;;;;;2.36;100.00;99397.97;6251631;28;20053;-74
2021/12/28 05:38:32;;;;;;;5.32;3.40;;;;;;;2.34;100.00;99399.81;6244195;28;20053;-74
2021/12/28 05:41:33;;;;;;;6.18;3.17;;;;;;;2.35;100.00;99385.09;6251082;28;20053;-74
2021/12/28 05:44:35;;;;;;;8.98;3.67;;;;;;;2.35;100.00;99387.69;6245550;28;20421;-73
2021/12/28 05:47:36;;;;;;;4.88;2.92;;;;;;;2.32;100.00;99380.03;6242965;28;20045;-74
2021/12/28 05:50:38;;;;;;;4.75;2.35;;;;;;;2.24;100.00;99375.19;6251636;28;20431;-74
2021/12/28 05:53:41;;;;;;;4.13;2.85;;;;;;;2.18;100.00;99376.28;6238420;28;20493;-74
2021/12/28 05:56:42;;;;;;;5.38;2.97;;;;;;;2.11;100.00;99364.47;6226320;28;20057;-74
2021/12/28 05:59:44;;;;;;;5.05;2.67;;;;;;;2.06;100.00;99363.81;6226486;28;20054;-74
2021/12/28 06:02:46;;;;;;;5.47;2.88;;;;;;;2.01;100.00;99365.75;6226507;28;20452;-73
2021/12/28 06:05:47;;;;;;;5.38;3.50;;;;;;;1.96;100.00;99358.19;6226569;28;20054;-73
2021/12/28 06:08:51;;;;;;;3.70;1.90;;;;;;;1.90;100.00;99365.34;6239226;28;20119;-74
2021/12/28 06:11:52;;;;;;;8.10;3.65;;;;;;;1.85;100.00;99365.53;6250657;28;20057;-74
2021/12/28 06:14:53;;;;;;;3.38;2.33;;;;;;;1.82;100.00;99359.63;6250545;28;20045;-73
2021/12/28 06:17:55;;;;;;;6.18;2.67;;;;;;;1.76;100.00;99360.72;6250552;28;20057;-74
2021/12/28 06:20:57;;;;;;;3.80;2.60;;;;;;;1.71;100.00;99360.88;6248910;28;20049;-74
2021/12/28 06:24:00;;;;;;;2.95;2.13;;;;;;;1.66;100.00;99351.63;6242227;28;20053;-74
2021/12/28 06:27:01;;;;;;;3.88;2.63;;;;;;;1.59;100.00;99351.03;6244401;28;20486;-73
2021/12/28 06:30:04;;;;;;;6.32;2.70;;;;;;;1.51;100.00;99346.16;6246987;28;20057;-74
2021/12/28 06:33:05;;;;;;;3.00;2.10;;;;;;;1.46;100.00;99349.81;6247089;28;20516;-74
2021/12/28 06:36:07;;;;;;;2.67;1.63;;;;;;;1.41;100.00;99342.25;6250070;28;20045;-74
2021/12/28 06:39:10;;;;;;;2.25;1.65;;;;;;;1.36;100.00;99345.88;6250377;28;20053;-74
2021/12/28 06:42:11;;;;;;;3.88;2.22;;;;;;;1.32;100.00;99342.59;6248176;28;20049;-73
2021/12/28 06:45:13;;;;;;;4.65;2.13;;;;;;;1.29;100.00;99345.28;6249093;28;20726;-72
2021/12/28 06:48:15;;;;;;;6.35;2.63;;;;;;;1.26;100.00;99354.00;6249822;28;20451;-72
2021/12/28 06:51:16;;;;;;;5.60;2.85;;;;;;;1.21;100.00;99345.56;6248164;28;20053;-74
2021/12/28 06:54:19;;;;;;;3.38;2.08;;;;;;;1.17;100.00;99345.75;6250044;28;20455;-74
2021/12/28 06:57:21;;;;;;;3.72;2.63;;;;;;;1.14;100.00;99338.94;6249748;28;20467;-73
2021/12/28 07:00:22;;;;;;;5.90;2.88;;;;;;;1.11;100.00;99339.06;6249517;28;20092;-74
2021/12/28 07:03:24;;;;;;;5.45;2.47;;;;;;;1.09;100.00;99335.69;6249577;28;20056;-74
2021/12/28 07:06:26;;;;;;;4.78;2.10;;;;;;;1.09;100.00;99348.63;6243327;28;20045;-74
2021/12/28 07:09:29;;;;;;;5.05;2.30;;;;;;;1.06;100.00;99340.97;6249283;28;20611;-74
2021/12/28 07:12:30;;;;;;;3.90;2.47;;;;;;;1.00;100.00;99342.06;6249407;28;20060;-73
2021/12/28 07:15:32;;;;;;;2.25;1.65;;;;;;;1.02;100.00;99332.47;6249396;28;20488;-74
2021/12/28 07:18:33;;;;;;;3.28;2.20;;;;;;;1.06;100.00;99340.13;6249256;28;20073;-74
2021/12/28 07:21:34;;;;;;;4.70;2.22;;;;;;;1.06;100.00;99345.31;6247263;28;20049;-75
2021/12/28 07:24:37;;;;;;;4.30;2.38;;;;;;;1.02;100.00;99336.81;6248883;28;20057;-74
2021/12/28 07:27:39;;;;;;;5.03;2.67;;;;;;;0.99;100.00;99342.09;6244288;28;20038;-74
2021/12/28 07:30:40;;;;;;;4.22;2.80;;;;;;;1.00;100.00;99341.22;6234995;28;20049;-74
2021/12/28 07:33:42;;;;;;;3.88;1.88;;;;;;;0.99;100.00;99342.94;6236688;28;20053;-74
2021/12/28 07:36:43;;;;;;;4.05;1.85;;;;;;;0.97;100.00;99341.31;6234891;28;20072;-73
2021/12/28 07:39:50;;;;;;;6.95;2.92;;;;;;;0.97;100.00;99334.41;6226331;28;20049;-74
2021/12/28 07:42:51;;;;;;;4.63;2.97;;;;;;;0.96;100.00;99334.47;6224403;28;20053;-74
2021/12/28 07:45:52;;;;;;;4.97;2.42;;;;;;;0.92;100.00;99336.31;6224276;28;20046;-74
2021/12/28 07:48:54;;;;;;;2.97;2.33;;;;;;;0.91;100.00;99334.63;6223963;28;20501;-76
2021/12/28 07:51:55;;;;;;;3.60;2.75;;;;;;;0.90;100.00;99332.91;6242886;28;20056;-75
2021/12/28 07:54:58;;;;;;;4.45;2.63;;;;;;;0.88;100.00;99324.38;6247555;28;20053;-75
2021/12/28 07:57:59;;;;;;;5.28;2.88;;;;;;;0.91;100.00;99320.84;6248278;28;20420;-75
2021/12/28 08:01:00;;;;;;;4.13;2.72;;;;;;;0.93;100.00;99321.63;6248262;28;20061;-74
2021/12/28 08:04:02;;;;;;;3.47;2.13;;;;;;;0.91;100.00;99318.25;6248426;28;20053;-74
2021/12/28 08:07:04;;;;;;;4.30;2.40;;;;;;;0.88;100.00;99320.97;6248085;28;20041;-75
2021/12/28 08:10:09;;;;;;;2.67;1.73;;;;;;;0.82;100.00;99310.81;6245818;28;20468;-74
2021/12/28 08:13:10;;;;;;;3.97;2.60;;;;;;;0.78;100.00;99304.94;6248030;28;20049;-74
2021/12/28 08:16:12;;;;;;;4.43;2.38;;;;;;;0.78;100.00;99310.13;6247961;28;20045;-74
2021/12/28 08:19:13;;;;;;;4.00;2.15;;;;;;;0.79;100.00;99310.97;6247838;28;20053;-75
2021/12/28 08:22:14;;;;;;;6.53;2.50;;;;;;;0.77;100.00;99300.66;6247590;28;20049;-74
2021/12/28 08:25:19;;;;;;;2.78;2.30;;;;;;;0.80;100.00;99303.13;6246005;28;20515;-75
2021/12/28 08:28:20;;;;;;;7.15;3.80;;;;;;;0.85;100.00;99297.78;6247376;28;20057;-74
2021/12/28 08:31:22;;;;;;;5.28;2.72;;;;;;;0.91;100.00;99295.84;6239273;28;20397;-74
2021/12/28 08:34:23;;;;;;;5.95;2.50;;;;;;;0.97;100.00;99294.75;6247616;28;20049;-75
2021/12/28 08:37:25;;;;;;;3.38;2.08;;;;;;;0.99;100.00;99291.19;6245867;28;20492;-75
2021/12/28 08:40:27;;;;;;;3.45;2.13;;;;;;;1.02;100.00;99287.66;6247177;28;20049;-75
2021/12/28 08:43:29;;;;;;;3.92;2.10;;;;;;;1.05;100.00;99284.97;6247339;28;20670;-75
2021/12/28 08:46:30;;;;;;;2.80;1.70;;;;;;;1.12;100.00;99288.16;6247653;28;20042;-75
2021/12/28 08:49:32;;;;;;;2.60;1.83;;;;;;;1.19;100.00;99282.69;6246958;28;20053;-75
2021/12/28 08:52:33;;;;;;;1.90;1.73;;;;;;;1.33;100.00;99279.56;6247009;28;20053;-75
2021/12/28 08:55:35;;;;;;;5.57;1.80;;;;;;;1.50;100.00;99276.31;6247070;28;20049;-74
2021/12/28 08:58:37;;;;;;;2.47;1.52;;;;;;;1.65;100.00;99273.09;6245826;28;20048;-74
2021/12/28 09:01:38;;;;;;;3.67;2.72;;;;;;;1.76;100.00;99268.31;6242479;28;20049;-75
2021/12/28 09:04:43;;;;;;;6.22;2.90;;;;;;;1.88;100.00;99263.56;6243788;28;20516;-74
2021/12/28 09:07:44;;;;;;;5.65;2.55;;;;;;;1.96;100.00;99262.31;6233461;28;20050;-74
2021/12/28 09:10:48;;;;;;;9.90;2.55;;;;;;;2.06;100.00;99260.19;6233656;28;20498;-75
2021/12/28 09:13:49;;;;;;;4.63;2.55;;;;;;;2.17;100.00;99260.56;6220132;28;20105;-75
2021/12/28 09:16:51;;;;;;;3.75;2.30;;;;;;;2.23;100.00;99249.94;6239018;28;20056;-75
2021/12/28 09:19:52;;;;;;;3.40;1.95;;;;;;;2.27;100.00;99248.91;6238621;28;20052;-72
2021/12/28 09:22:56;;;;;;;2.75;1.70;;;;;;;2.41;100.00;99253.50;6239457;28;20049;-75
2021/12/28 09:25:59;;;;;;;4.43;2.67;;;;;;;2.54;100.00;99244.25;6245716;28;20425;-74
2021/12/28 09:29:00;;;;;;;4.80;1.88;;;;;;;2.63;100.00;99240.38;6242837;28;20053;-75
2021/12/28 09:32:01;;;;;;;5.20;3.25;;;;;;;2.71;100.00;99245.22;6245886;28;20057;-74
2021/12/28 09:35:04;;;;;;;5.43;2.42;;;;;;;2.75;100.00;99231.22;6246349;28;20045;-74
2021/12/28 09:38:06;;;;;;;5.80;2.38;;;;;;;2.77;100.00;99232.84;6222012;28;20089;-74
2021/12/28 09:41:09;;;;;;;15.10;3.13;;;;;;;2.79;100.00;99231.00;6221963;28;20061;-74
2021/12/28 09:44:11;;;;;;;4.20;2.83;;;;;;;2.86;100.00;99226.41;6222049;28;20054;-75
2021/12/28 09:47:13;;;;;;;4.85;2.60;;;;;;;2.98;100.00;99227.56;6228873;28;20501;-74
2021/12/28 09:50:16;;;;;;;5.57;2.47;;;;;;;3.09;100.00;99232.22;6246680;28;20049;-75
2021/12/28 09:53:18;;;;;;;4.50;2.88;;;;;;;3.30;100.00;99226.88;6246722;28;20485;-75
2021/12/28 09:56:21;;;;;;;4.18;2.22;;;;;;;3.45;100.00;99227.91;6242803;28;20053;-75
2021/12/28 09:59:23;;;;;;;5.22;2.28;;;;;;;3.56;100.00;99227.38;6243487;28;20451;-75
2021/12/28 10:02:24;;;;;;;5.35;2.50;;;;;;;3.66;100.00;99214.78;6244026;28;20053;-74
2021/12/28 10:05:27;;;;;;;6.75;2.83;;;;;;;3.73;100.00;99205.78;6234275;28;20056;-73
2021/12/28 10:08:28;;;;;;;5.93;3.55;;;;;;;3.78;100.00;99209.81;6235840;28;20053;-74
2021/12/28 10:11:35;;;;;;;4.47;2.20;;;;;;;3.94;100.00;99209.03;6232736;28;20056;-74
2021/12/28 10:14:37;;;;;;;6.72;2.70;;;;;;;4.01;100.00;99203.44;6229171;28;20046;-74
2021/12/28 10:17:42;;;;;;;4.00;2.53;;;;;;;4.11;100.00;99198.59;6223436;28;20489;-75
2021/12/28 10:20:45;;;;;;;6.72;2.97;;;;;;;4.19;100.00;99196.47;6225763;28;20417;-74
2021/12/28 10:23:47;;;;;;;6.22;2.33;;;;;;;4.25;100.00;99182.28;6246977;28;20496;-74
2021/12/28 10:27:11;;;;;;;4.60;2.55;;;;;;;4.28;100.00;99182.13;6242533;28;20045;-74
2021/12/28 10:30:16;;;;;;;12.70;2.88;;;;;;;4.27;100.00;99175.22;6250135;28;20053;-74
2021/12/28 10:33:21;;;;;;;3.72;2.22;;;;;;;4.29;100.00;99170.81;6250214;28;20061;-75
2021/12/28 10:36:32;;;;;;;3.42;1.60;;;;;;;4.27;100.00;99165.69;6227480;28;20050;-74
2021/12/28 10:39:42;;;;;;;4.57;2.28;;;;;;;4.38;100.00;99172.09;6225356;28;20045;-75
2021/12/28 10:42:51;;;;;;;4.80;2.15;;;;;;;4.46;100.00;99162.13;6244515;28;20052;-75
2021/12/28 10:45:59;;;;;;;6.13;2.83;;;;;;;4.47;100.00;99167.22;6250100;28;20500;-74
2021/12/28 10:49:02;;;;;;;7.10;2.53;;;;;;;4.56;100.00;99178.91;6243646;28;20049;-74
2021/12/28 10:52:26;;;;;;;2.85;1.58;;;;;;;4.60;100.00;99166.56;6248670;28;20096;-75
2021/12/28 10:55:29;;;;;;;5.07;2.05;;;;;;;4.70;100.00;99167.75;6249069;28;20503;-74
2021/12/28 10:58:39;;;;;;;2.88;2.13;;;;;;;4.78;100.00;99162.97;6249113;28;20048;-75
2021/12/28 11:01:42;;;;;;;4.85;2.28;;;;;;;4.88;100.00;99161.53;6249816;28;20511;-75
2021/12/28 11:04:43;;;;;;;6.80;3.03;;;;;;;4.91;100.00;99150.97;6240424;28;20053;-74
2021/12/28 11:07:56;;;;;;;3.90;1.83;;;;;;;4.94;100.00;99147.31;6224672;28;20132;-75
2021/12/28 11:11:01;;;;;;;7.35;2.40;;;;;;;4.91;100.00;99142.31;6222372;28;20053;-74
2021/12/28 11:14:06;;;;;;;4.45;2.17;;;;;;;4.94;100.00;99131.72;6236481;28;20057;-74
2021/12/28 11:17:08;;;;;;;8.13;2.25;;;;;;;5.00;100.00;99131.38;6240287;28;20493;-74
2021/12/28 11:20:10;;;;;;;1.75;1.15;;;;;;;5.07;100.00;99122.28;6246545;28;20056;-74
2021/12/28 11:23:15;;;;;;;2.53;1.90;;;;;;;5.14;100.00;99118.41;6245670;28;20056;-74
2021/12/28 11:26:20;;;;;;;3.33;1.67;;;;;;;5.13;100.00;99116.72;6249186;28;20053;-74
2021/12/28 11:29:30;;;;;;;4.18;1.80;;;;;;;5.09;100.00;99113.47;6244654;28;20135;-74
2021/12/28 11:32:31;;;;;;;3.10;1.55;;;;;;;5.16;100.00;99107.91;6232162;28;20092;-74
2021/12/28 11:35:33;;;;;;;3.22;1.70;;;;;;;5.19;100.00;99103.38;6247256;28;20052;-74
2021/12/28 11:38:35;;;;;;;2.50;1.98;;;;;;;5.27;100.00;99090.75;6248815;28;20053;-74
2021/12/28 11:41:37;;;;;;;7.80;2.15;;;;;;;5.42;100.00;99081.19;6248532;28;20053;-73
2021/12/28 11:44:41;;;;;;;4.70;1.98;;;;;;;5.55;100.00;99071.72;6248628;28;20050;-74
2021/12/28 11:47:42;;;;;;;4.07;1.77;;;;;;;5.68;100.00;99073.56;6240789;28;20049;-75
2021/12/28 11:50:44;;;;;;;4.35;1.20;;;;;;;5.75;100.00;99067.91;6248104;28;20053;-75
2021/12/28 11:53:47;;;;;;;3.78;1.50;;;;;;;5.85;100.00;99070.78;6224566;28;20073;-73
2021/12/28 11:56:52;;;;;;;4.72;1.50;;;;;;;5.95;100.00;99061.53;6223693;28;20485;-73
2021/12/28 11:59:57;;;;;;;1.30;1.05;;;;;;;6.17;100.00;99053.19;6223409;28;20410;-74
2021/12/28 12:03:00;;;;;;;1.92;1.38;;;;;;;6.39;100.00;99038.81;6224453;28;20045;-75
2021/12/28 12:06:02;;;;;;;2.20;1.20;;;;;;;6.40;100.00;99032.63;6223871;28;20061;-75
2021/12/28 12:09:06;;;;;;;2.45;1.50;;;;;;;6.42;100.00;99033.41;6227421;28;20501;-73
2021/12/28 12:12:11;;;;;;;7.38;1.25;;;;;;;6.40;100.00;99020.44;6234974;28;20488;-74
2021/12/28 12:15:17;;;;;;;3.10;1.75;;;;;;;6.26;100.00;99015.25;6231426;28;20045;-74
2021/12/28 12:18:23;;;;;;;3.55;2.13;;;;;;;6.19;100.00;99012.22;6232661;28;20511;-74
2021/12/28 12:21:24;;;;;;;2.72;1.20;;;;;;;6.14;100.00;99016.06;6232671;28;20500;-74
2021/12/28 12:24:35;;;;;;;3.28;1.35;;;;;;;6.06;100.00;99021.75;6233954;28;20493;-74
2021/12/28 12:27:47;;;;;;;4.20;1.23;;;;;;;6.17;100.00;99010.63;6233876;28;20405;-74
2021/12/28 12:30:52;;;;;;;2.60;1.20;;;;;;;6.28;100.00;99009.03;6238810;28;20052;-74
2021/12/28 12:33:53;;;;;;;6.30;1.23;;;;;;;6.45;100.00;99013.16;6232956;28;20448;-74
2021/12/28 12:36:55;;;;;;;3.15;2.20;;;;;;;6.45;100.00;99001.88;6233677;28;20048;-74
2021/12/28 12:39:56;;;;;;;3.35;1.23;;;;;;;6.48;100.00;98993.84;6233150;28;20042;-74
2021/12/28 12:43:11;;;;;;;1.42;1.10;;;;;;;6.48;100.00;98984.25;6233132;28;20048;-74
2021/12/28 12:46:20;;;;;;;3.30;1.70;;;;;;;6.35;100.00;98986.81;6232995;28;20044;-74
2021/12/28 12:49:24;;;;;;;2.53;1.05;;;;;;;6.24;100.00;98970.19;6234089;28;20052;-73
2021/12/28 12:52:28;;;;;;;2.60;1.25;;;;;;;6.22;100.00;98965.09;6222358;28;20046;-74
2021/12/28 12:55:35;;;;;;;1.88;1.25;;;;;;;6.22;100.00;98951.19;6222884;28;20062;-74
2021/12/28 12:58:39;;;;;;;2.42;1.40;;;;;;;6.17;100.00;98945.41;6222421;28;20052;-74
2021/12/28 13:02:01;;;;;;;1.15;1.05;;;;;;;6.17;100.00;98929.78;6227853;28;20049;-73
2021/12/28 13:05:21;;;;;;;1.55;1.27;;;;;;;6.13;100.00;98920.47;6247086;28;20683;-77
2021/12/28 13:08:22;;;;;;;3.97;1.35;;;;;;;6.10;100.00;98918.91;6247004;28;20046;-74
2021/12/28 13:11:30;;;;;;;2.30;1.58;;;;;;;6.13;100.00;98913.47;6246935;28;20459;-74
2021/12/28 13:14:32;;;;;;;4.65;1.15;;;;;;;6.18;100.00;98916.66;6247154;28;20132;-74
2021/12/28 13:17:38;;;;;;;2.35;1.08;;;;;;;6.15;100.00;98910.78;6246723;28;20520;-74
2021/12/28 13:20:40;;;;;;;4.25;1.45;;;;;;;6.13;100.00;98904.81;6246634;28;20056;-74
2021/12/28 13:23:41;;;;;;;3.05;1.42;;;;;;;6.14;100.00;98898.69;6246819;28;20060;-73
2021/12/28 13:26:43;;;;;;;2.33;1.52;;;;;;;6.17;100.00;98898.47;6246622;28;20049;-74
2021/12/28 13:29:44;;;;;;;1.48;0.90;;;;;;;6.11;100.00;98904.94;6246497;28;20056;-74
2021/12/28 13:32:47;;;;;;;1.42;1.00;;;;;;;6.12;100.00;98893.56;6244785;28;20489;-74
2021/12/28 13:35:53;;;;;;;1.10;1.00;;;;;;;6.04;100.00;98888.00;6246608;28;20056;-74
2021/12/28 13:39:05;;;;;;;3.08;1.63;;;;;;;5.98;100.00;98883.19;6246443;28;20054;-74
2021/12/28 13:42:06;;;;;;;4.15;1.15;;;;;;;5.93;100.00;98873.06;6245958;28;20151;-74
2021/12/28 13:45:11;;;;;;;2.97;1.42;;;;;;;5.89;100.00;98871.53;6246406;28;20050;-74
2021/12/28 13:48:20;;;;;;;1.75;1.30;;;;;;;5.84;100.00;98868.41;6242504;28;20121;-72
2021/12/28 13:51:23;;;;;;;1.63;1.10;;;;;;;5.79;100.00;98867.88;6240919;28;20054;-73
2021/12/28 13:54:25;;;;;;;5.43;1.50;;;;;;;5.71;100.00;98863.13;6251375;28;20080;-73
2021/12/28 13:57:27;;;;;;;1.75;1.10;;;;;;;5.67;100.00;98856.44;6251041;28;20100;-74
2021/12/28 14:00:31;;;;;;;3.58;1.50;;;;;;;5.64;100.00;98854.06;6249275;28;20073;-74
2021/12/28 14:03:34;;;;;;;3.63;2.00;;;;;;;5.62;100.00;98849.84;6251193;28;20053;-73
2021/12/28 14:06:37;;;;;;;3.60;1.38;;;;;;;5.61;100.00;98849.03;6251119;28;20500;-74
2021/12/28 14:09:39;;;;;;;5.20;1.02;;;;;;;5.59;100.00;98849.13;6251067;28;20045;-73
2021/12/28 14:12:40;;;;;;;2.42;1.45;;;;;;;5.58;100.00;98851.81;6250949;28;20046;-74
2021/12/28 14:15:50;;;;;;;2.03;0.90;;;;;;;5.55;100.00;98852.84;6250793;28;20519;-73
2021/12/28 14:18:54;;;;;;;1.98;1.05;;;;;;;5.52;100.00;98833.97;6250428;28;20041;-74
2021/12/28 14:21:57;;;;;;;1.60;1.30;;;;;;;5.48;100.00;98835.09;6250579;28;20056;-74